Markel Herrero

Olheiro-Chefe - Eibar
8 Out 2028
Domingo
Processo

Personalidade

Adaptabilidade (13) Ambição (7) Controvérsia (17) Lealdade (14) Pressão (3) Profissionalismo (4) Espírito Esportivo (15) Temperamento (8)

Perfil

Estilo de Treinamento Democrático
Licença Continental A
Determinação 11
Gestão de Pessoas 6
Motivação 7
Disciplina 11
Satisfação no Trabalho
100%
Fadiga
0%
Função Olheiro-Chefe
Salário 47.5K p/s
Contrato 14.03.2030

Desempenho

Comportamento Bom
Eficácia do Treinamento
48%
Desenvolvimento do Jogador
55%
Prevenção de Lesões
60%
Implementação Tática
45%

Eventos Recentes

Avaliou um jogador agora
Participou de uma reunião de recrutamento agora
Participou de uma reunião de recrutamento agora
Recomendou um alvo de transferência agora
Recomendou um alvo de transferência agora
Recomendou um alvo de transferência agora
Avaliou um jogador agora
Avaliou um jogador agora

Monitorando agora

142
Jogador Clube Status Habilidade Confiança Observado Última observação Último voto
Matías Arias Vélez Ativo 122 / 114 40% 2 07.10.2028 -
Lautaro Díaz San Martín Ativo 98 / 104 40% 3 07.10.2028 -
Tahiel Peralta Racing Club Ativo 115 / 115 40% 3 06.10.2028 -
Gustavo Lozano Metropolitanos Ativo 101 / 102 40% 1 06.10.2028 -
Santiago Muñoz Quilmes Ativo 78 / 91 40% 2 03.10.2028 -
Emiliano Zambrano Cortulua Ativo 104 / 95 40% 1 03.10.2028 -
Luis Otávio Orlando City Ativo 126 / 115 40% 2 02.10.2028 -
Lionel Jara Central Córdoba SdE Ativo 93 / 111 40% 1 02.10.2028 -
Paolo Dorini Estudiantes de Merida Ativo 88 / 99 40% 1 18.09.2028 -
Luis Yanes Real Cartagena Ativo 102 / 92 40% 3 15.09.2028 -
Sebastian Rodriguez Houston Dynamo Ativo 123 / 120 40% 1 15.09.2028 -
Joel Ezra Enyimba Ativo 105 / 108 40% 2 13.09.2028 -
Lucca São Paulo Ativo 120 / 126 40% 1 10.09.2028 -
Pablo Lago Juventud Ativo 89 / 105 40% 1 10.09.2028 -
Mateo Lizondo Colón Ativo 81 / 110 40% 1 08.09.2028 -
Santiago Segovia Rosario Central Ativo 107 / 120 40% 1 06.09.2028 -
Peyton Miller New England Revolution Ativo 114 / 111 40% 1 05.09.2028 -
Santos Torrealba Metropolitanos Ativo 85 / 95 40% 1 04.09.2028 -
Julian Hall Real Salt Lake Ativo 122 / 123 40% 1 04.09.2028 -
Benicio Romero Inter Ativo 105 / 96 40% 1 22.08.2028 -
Martín D'Aurizio Huracán Ativo 114 / 105 40% 1 22.08.2028 -
Alejandro Gómez Mirandés Ativo 113 / 107 58% 1 14.08.2028 -
Thiago Sabella Banfield Ativo 118 / 109 40% 1 07.08.2028 -
David Fernández Unión de Santa Fe Ativo 107 / 101 40% 1 07.08.2028 -
Dylan Moody Cheltenham Town Ativo 110 / 125 40% 1 20.06.2028 -
Ulíses López Barracas Central Ativo 85 / 99 40% 1 20.06.2028 -
Jeremías Merlo Gimnasia La Plata Ativo 126 / 128 40% 3 24.01.2028 -
Rémi Himbert AC Ajaccio Ativo 126 / 129 40% 1 24.01.2028 -
Mao Hosoya Santos Ativo 134 / 135 67% 1 01.01.2028 Aprovar
Matěj Ryneš AS Nancy Ativo 122 / 123 67% 1 01.01.2028 Aprovar
Ibrahim Fullah Charlton Athletic Ativo 126 / 127 40% 1 31.12.2027 -
Edison Gruezo Guadalajara Ativo 93 / 115 40% 2 19.12.2027 -
Giovanni Baroni Talleres Ativo 121 / 114 40% 2 19.12.2027 -
Victor Hernandez Santa Fe Ativo 112 / 128 40% 5 18.12.2027 -
Pedro Baltika Ativo 141 / 140 40% 1 16.12.2027 -
Mateo Peralta Danubio Ativo 109 / 115 40% 1 16.12.2027 -
Emmanuel Ndubueze Shooting Stars Ativo 96 / 96 40% 1 15.12.2027 -
Francisco Marchant Colo-Colo Ativo 81 / 101 40% 1 13.12.2027 -
Luighi Palmeiras Ativo 118 / 121 40% 1 12.12.2027 -
Dylan Cabral Arsenal Ativo 92 / 97 40% 2 10.12.2027 -
Mateo Silvetti Seattle Sounders Ativo 142 / 125 40% 1 10.12.2027 -
Ruben Ramos LA Galaxy Ativo 83 / 104 40% 1 09.12.2027 -
Francisco Triver River Plate Ativo 101 / 100 40% 1 09.12.2027 -
Sebastián Muñoz GIF Sundsvall Ativo 103 / 96 40% 1 07.12.2027 -
Juan Rodríguez Cerro Largo Ativo 83 / 111 40% 1 06.12.2027 -
Alex Verón Vélez Ativo 114 / 112 40% 2 02.12.2027 -
Christ Wawa Gefle Ativo 113 / 100 40% 1 01.12.2027 -
Rafael Moreno Atletico Venezuela Ativo 96 / 104 40% 1 01.12.2027 -
Nicolás Barros Schelotto Gimnasia La Plata Ativo 111 / 129 40% 1 29.11.2027 -
Luka Andrade Montevideo City Torque Ativo 98 / 100 40% 2 26.11.2027 -
Abdulrahman Hamisu Niger Tornadoes Ativo 85 / 89 40% 1 26.11.2027 -
Tiago Pucciarelli IF Elfsborg Ativo 116 / 105 40% 2 24.11.2027 -
Tomás Aranda Boca Juniors Ativo 111 / 124 40% 1 24.11.2027 -
Idris Ajiya Nasarawa United Ativo 84 / 94 40% 1 23.11.2027 -
Hugo Rojas Instituto Ativo 100 / 106 40% 1 03.11.2027 -
Trey Nyoni Rotherham United Ativo 143 / 142 40% 1 01.11.2027 -
Josh Acheampong Everton Ativo 140 / 148 40% 1 01.11.2027 -
Daniel Idoko Ikorodu City Ativo 94 / 91 40% 1 31.08.2027 -
Timoteo Chamorro Talleres Ativo 118 / 105 40% 1 31.08.2027 -
Tommaso Cecotti Carpi Ativo 98 / 97 40% 1 09.08.2027 -
Facundo Rodríguez Talleres Ativo 105 / 96 40% 1 28.06.2027 -
Oleh Ocheretko FC Dallas Ativo 129 / 131 67% 1 01.06.2027 Aprovar
Carlos Espí Real Madrid Ativo 129 / 119 40% 1 31.05.2027 -
George Brown Sheffield Wednesday Ativo 97 / 111 40% 2 29.05.2027 -
Borna Knezović Casarano Ativo 104 / 105 40% 2 28.05.2027 -
Ephraim Yeboah Bristol City Ativo 97 / 94 40% 1 28.05.2027 -
Tibe De Vlieger KAA Gent Ativo 103 / 112 40% 1 27.05.2027 -
Romelle Donovan Brentford Ativo 128 / 132 40% 7 25.05.2027 -
Bariş Kalaycı Fatih Karagumruk Ativo 108 / 99 40% 1 25.05.2027 -
Oscar Schwartau Norwich City Ativo 127 / 132 40% 3 24.05.2027 -
Paulo Cardoso Sporting CP Ativo 99 / 106 40% 1 23.05.2027 -
Yusi Alavés Ativo 130 / 134 40% 1 22.05.2027 -
Bazoumana Touré Newcastle United Ativo 130 / 136 40% 4 21.05.2027 -
Lander Astiazarán Real Sociedad Ativo 110 / 107 40% 3 19.05.2027 -
Eliás Montiel Borussia Dortmund Ativo 122 / 141 40% 1 19.05.2027 -
Víctor Guzmán Sporting CP Ativo 87 / 95 40% 1 18.05.2027 -
Lucas Høgsberg RC Strasbourg Ativo 126 / 147 40% 3 16.05.2027 -
Louis Leroux FC Nantes Ativo 119 / 124 40% 3 11.05.2027 -
Martim Cunha Porto Ativo 107 / 105 40% 1 06.05.2027 -
Izan Merino Málaga Ativo 126 / 126 40% 4 04.05.2027 -
Eduardo Lozano Botafogo Ativo 129 / 156 40% 1 04.05.2027 -
Othmane Maamma Watford Ativo 132 / 128 40% 7 26.04.2027 -
Gianluca Prestianni Benfica Ativo 140 / 138 40% 5 21.04.2027 -
Yussif Saidu Zaragoza Ativo 131 / 118 40% 2 09.04.2027 -
Olívio Tomé Benfica Ativo 114 / 114 40% 2 08.04.2027 -
Samir El Mourabet RC Strasbourg Ativo 114 / 135 40% 1 07.04.2027 -
Senny Mayulu Paris Saint-Germain Ativo 136 / 145 40% 2 05.04.2027 -
Patrick Preciado Deportivo Pasto Ativo 116 / 105 40% 2 04.04.2027 -
Williams Wonah AS Police Ativo 84 / 85 40% 1 04.04.2027 -
Rocco Vata Watford Ativo 124 / 130 40% 3 27.03.2027 -
Gessime Yassine RC Strasbourg Ativo 119 / 125 40% 2 25.03.2027 -
Sebastián Bonilla Victoriia Sumy Ativo 84 / 82 40% 1 25.03.2027 -
Eduardo Fernandes Benfica Ativo 98 / 112 40% 2 23.03.2027 -
Marcos Arias Metalurh Zaporizhzhia Ativo 81 / 100 40% 1 21.03.2027 -
Asanele Bonani Chippa United Ativo 78 / 98 40% 1 19.03.2027 -
Bernardes Benfica Ativo 95 / 97 40% 1 19.03.2027 -
Sindre Walle Egeli Udinese Ativo 137 / 139 40% 1 18.03.2027 -
Mathys Tel Tottenham Ativo 145 / 141 40% 1 17.03.2027 -
Cheveyo Tsawa Club Brugge Ativo 121 / 126 40% 1 04.03.2027 -
Mohamadou Kanté Crawley Town Ativo 112 / 123 40% 1 28.02.2027 -
Malick Fofana Sunderland Ativo 142 / 155 40% 5 27.02.2027 -
Ethan Williams Peterborough United Ativo 108 / 111 40% 2 23.02.2027 -
Caleb Yirenkyi Coventry City Ativo 136 / 147 40% 1 22.02.2027 -
Sam Amo-Ameyaw RC Strasbourg Ativo 133 / 128 40% 1 20.02.2027 -
Joaquin Seys Club Brugge Ativo 123 / 134 40% 1 17.02.2027 -
Martin Gjorgievski Zbrojovka Brno Ativo 113 / 114 40% 2 08.02.2027 -
Dehmaine Tabibou FC Nantes Ativo 118 / 126 40% 2 07.02.2027 -
Nicolás Ibáñez Cruz Azul Ativo 132 / 125 40% 1 26.01.2027 -
Ismael Díaz Leon Ativo 142 / 138 40% 1 19.01.2027 -
Thiago Parga Huracán Ativo 101 / 93 40% 1 01.01.2027 -
Kyriani Sabbe Club Brugge Ativo 110 / 130 40% 3 30.12.2026 -
William Gomes Porto Ativo 134 / 145 40% 1 27.12.2026 -
Kirill Glebov CSKA Moscow Ativo 138 / 132 40% 1 26.12.2026 -
Bobby Clark Derby County Ativo 115 / 121 40% 1 18.12.2026 -
Tudor Mendel-Idowu Gubbio Ativo 103 / 94 40% 1 18.12.2026 -
Diego Gaitán Maipú Ativo 96 / 128 40% 1 09.12.2026 -
Jan Virgili Club Brugge Ativo 121 / 142 40% 1 07.12.2026 Mais informações
Agustín Medina Lanús Ativo 110 / 127 40% 2 19.11.2026 -
James Bacca La Equidad Ativo 128 / 128 40% 2 17.11.2026 -
Nahuel Arias San Lorenzo Ativo 112 / 127 40% 2 16.11.2026 -
Facundo Di Biasi Gimnasia La Plata Ativo 103 / 134 40% 2 14.11.2026 -
Matías Magdaleno Estudiantes Ativo 114 / 100 40% 1 13.11.2026 -
Mathias De Amorim Famalicao Ativo 119 / 140 40% 1 03.11.2026 -
Kevin Contreras Union Espanola Ativo 82 / 90 40% 1 19.10.2026 -
Nahuel Leivas Montevideo City Torque Ativo 99 / 98 40% 1 18.10.2026 -
Lautaro Vargas Unión de Santa Fe Ativo 128 / 127 40% 1 16.10.2026 -
Gonzalo Bordón Independiente Ativo 122 / 128 40% 1 16.10.2026 -
Santiago Fernández Talleres Ativo 130 / 136 40% 2 15.10.2026 -
Pedro Bravo FC Midtjylland Ativo 133 / 129 40% 1 08.10.2026 -
Geanfranco Rodríguez Defensor Sporting Ativo 96 / 105 40% 1 05.10.2026 -
Thiago Acosta River Plate Ativo 111 / 108 40% 1 20.09.2026 -
Federico Acosta Miramar Misiones Ativo 94 / 91 40% 1 17.09.2026 -
Léyder Morán Once Caldas Ativo 104 / 107 40% 1 11.09.2026 -
Lucas Richarte Temperley Ativo 87 / 106 40% 1 08.09.2026 -
Alan Forneris Racing Club Ativo 105 / 116 40% 1 08.09.2026 -
Lautaro Quiroga Defensa y Justicia Ativo 90 / 98 40% 1 07.09.2026 -
Ignacio Isla Unión de Santa Fe Ativo 87 / 118 40% 1 25.08.2026 -
Facundo Montiel Colegiales Ativo 103 / 91 40% 1 25.08.2026 -
Julien Ponceau Valladolid Ativo 124 / 124 58% 1 17.08.2026 -
Enzo Gramajo Vélez Ativo 93 / 81 40% 1 10.08.2026 -
Franco Yennerich Talleres Ativo 87 / 92 40% 1 10.08.2026 -
Pablo Ferreira Platense Ativo 93 / 103 40% 1 02.08.2026 -